West Friendship, Maryland
Current Conditions -  °F | °C
As of 3:55 PM on Thursday 27 Nov 2014 (Local Time) from KGAI Reporting Station
Broken Clouds Broken Clouds  
Wind Chill: 32°   Ceiling: 5000
Heat Index: 37°   Visibility: 10mi
Dew Point: 28°   Wind: 7mph
Humidity: 70%   Direction: 300°WNW
Pressure: 30.09"   Gusts: NA
Location:  39.3°N, 76.95°W
Report Text: KGAI 272055Z 30006KT 10SM FEW030 SCT039 BKN050 03/M02 A3009 RMK AO1 52010
Loading
Personal Weather Stations






























Interactive Weather Map New forecast layout! Learn more

10-Day Weather Forecast

Advertisements
Track Severe Weather on mobile